Geyserville, CA (95441)

8:06 PM PDT on October 22, 2014 (GMT -0700)
Geyserville | Change Station
CLOSE
Current Station
Personal Weather Station
Location: Geyserville, CA
Elevation: 207 ft
Nearby Weather Stations

Elev 207 ft 38.72 °N, 122.91 °W | Updated 2 seconds ago

Mostly Cloudy
Mostly Cloudy
61.0 °F
Feels Like 61.0 °F
N
1.2
Wind Variable Wind from WNW
Gusts 3.1 mph

Today
High -- | Low -- °F
--% Chance of Precip.
Yesterday
High -- | Low -- °F
Precip. -- in
7:27 AM 6:23 PM
Waning Crescent, 1% visible
Pressure 30.00 in
Visibility 10.0 miles
Clouds Few 5000 ft
Mostly Cloudy 25000 ft
Dew Point 53 °F
Humidity 75%
Rainfall 0.00 in
Snow Depth Not available.
UV 0 out of 12
Pollen 3.80 out of 12
Air Quality Not available.
Flu Activity Sporadic
METAR KSTS 230253Z AUTO 00000KT 10SM FEW050 BKN250 17/13 A3002 RMK AO2 SLP159 T01670128 51008

More Conditions Fewer Conditions

Pressure 30.00 in
Visibility 10.0 miles
Clouds Few 5000 ft
Mostly Cloudy 25000 ft
Dew Point 53 °F
Humidity 75%
Rainfall 0.00 in
Snow Depth Not available.
UV 0 out of 12
Pollen 3.80 out of 12
Air Quality Not available.
Flu Activity Sporadic
METAR KSTS 230253Z AUTO 00000KT 10SM FEW050 BKN250 17/13 A3002 RMK AO2 SLP159 T01670128 51008

More Conditions Fewer Conditions

10-Day Weather Forecast

Almanac

Astronomy

Oct. 22, 2014 Rise Set
Actual Time 7:27 AM PDT 6:23 PM PDT
Civil Twilight 7:00 AM PDT 6:50 PM PDT
Nautical Twilight 6:29 AM PDT 7:21 PM PDT
Astronomical Twilight 5:59 AM PDT 7:52 PM PDT
Moon 6:15 AM PDT (10/22) 5:52 PM PDT (10/22)
Length of Visible Light 11h 49m
Length of Day
10h 55m
Tomorrow will be 2m 21s shorter.
Waning Crescent, 1% of the Moon is Illuminated
Today
Waning Crescent
Oct 23
New
Oct 30
First Quarter
Nov 6
Full
Nov 14
Last Quarter

Today's Extremes

State Highs State Lows

Community

WunderPhotos

Upload Photos

1,764,121 photos uploaded!

Nearby

Air Quality

  Air Quality AQ Index Pollutant
Wednesday Good
PM2.5
Thursday Good
PM2.5
Friday Good
PM2.5
Saturday Good
PM2.5
Sunday Good
PM2.5
Monday Good
PM2.5

Snow Depth

Station Depth Elevation
Ward Creek #3 0 in 6750 ft
Rubicon #2 0 in 7500 ft
Tahoe City Cross 0 in 6750 ft
Echo Peak 1 in 7800 ft
Hagan's Meadow 0 in 8000 ft

Earthquake Activity

City Distance Mag. Time & Date
No recent earthquake activity has been reported nearby.
Minimum magnitude displayed is 2.5.

Coastal Water Temperatures

Place Temperature
Point Reyes, CA 60.1 °F
Arena Cove, CA 60.1 °F
San Francisco, CA 63.0 °F
Richmond, CA 64.0 °F

Nearby Weather Stations